sensor_id;sensor_type;location;lat;lon;timestamp;P1;durP1;ratioP1;P2;durP2;ratioP2
13584;SDS011;6863;48.402;9.994;2024-01-11T00:00:22;56.25;;;39.05;;
13584;SDS011;6863;48.402;9.994;2024-01-11T00:02:47;56.63;;;37.80;;
13584;SDS011;6863;48.402;9.994;2024-01-11T00:05:13;55.47;;;37.87;;
13584;SDS011;6863;48.402;9.994;2024-01-11T00:07:38;58.87;;;38.87;;
13584;SDS011;6863;48.402;9.994;2024-01-11T00:10:04;54.27;;;37.43;;
13584;SDS011;6863;48.402;9.994;2024-01-11T00:12:30;58.47;;;38.65;;
13584;SDS011;6863;48.402;9.994;2024-01-11T00:14:56;57.20;;;38.95;;
13584;SDS011;6863;48.402;9.994;2024-01-11T00:17:23;56.90;;;37.67;;
13584;SDS011;6863;48.402;9.994;2024-01-11T00:19:50;58.45;;;39.72;;
13584;SDS011;6863;48.402;9.994;2024-01-11T00:22:15;56.63;;;38.20;;
13584;SDS011;6863;48.402;9.994;2024-01-11T00:24:41;59.78;;;39.85;;
13584;SDS011;6863;48.402;9.994;2024-01-11T00:27:07;58.23;;;39.47;;
13584;SDS011;6863;48.402;9.994;2024-01-11T00:29:33;54.00;;;38.00;;
13584;SDS011;6863;48.402;9.994;2024-01-11T00:32:00;57.75;;;38.15;;
13584;SDS011;6863;48.402;9.994;2024-01-11T00:34:26;55.13;;;37.95;;
13584;SDS011;6863;48.402;9.994;2024-01-11T00:36:51;56.08;;;38.25;;
13584;SDS011;6863;48.402;9.994;2024-01-11T00:39:17;59.13;;;39.57;;
13584;SDS011;6863;48.402;9.994;2024-01-11T00:41:42;55.83;;;38.70;;
13584;SDS011;6863;48.402;9.994;2024-01-11T00:44:08;59.23;;;39.37;;
13584;SDS011;6863;48.402;9.994;2024-01-11T00:46:34;57.65;;;38.35;;
13584;SDS011;6863;48.402;9.994;2024-01-11T00:49:00;55.77;;;37.87;;
13584;SDS011;6863;48.402;9.994;2024-01-11T00:51:25;54.87;;;37.53;;
13584;SDS011;6863;48.402;9.994;2024-01-11T00:53:51;54.88;;;38.58;;
13584;SDS011;6863;48.402;9.994;2024-01-11T00:56:17;58.22;;;39.00;;
13584;SDS011;6863;48.402;9.994;2024-01-11T00:58:44;59.72;;;39.72;;
13584;SDS011;6863;48.402;9.994;2024-01-11T01:01:09;57.78;;;40.22;;
13584;SDS011;6863;48.402;9.994;2024-01-11T01:03:35;59.45;;;40.53;;
13584;SDS011;6863;48.402;9.994;2024-01-11T01:06:01;61.00;;;41.30;;
13584;SDS011;6863;48.402;9.994;2024-01-11T01:08:27;56.55;;;39.33;;
13584;SDS011;6863;48.402;9.994;2024-01-11T01:10:53;59.37;;;40.37;;
13584;SDS011;6863;48.402;9.994;2024-01-11T01:13:18;56.83;;;39.13;;
13584;SDS011;6863;48.402;9.994;2024-01-11T01:15:44;59.47;;;39.20;;
13584;SDS011;6863;48.402;9.994;2024-01-11T01:18:10;57.00;;;38.83;;
13584;SDS011;6863;48.402;9.994;2024-01-11T01:20:35;51.88;;;37.83;;
13584;SDS011;6863;48.402;9.994;2024-01-11T01:23:01;53.38;;;38.60;;
13584;SDS011;6863;48.402;9.994;2024-01-11T01:25:27;56.03;;;38.83;;
13584;SDS011;6863;48.402;9.994;2024-01-11T01:27:52;54.70;;;38.13;;
13584;SDS011;6863;48.402;9.994;2024-01-11T01:30:18;54.92;;;38.92;;
13584;SDS011;6863;48.402;9.994;2024-01-11T01:32:44;52.75;;;36.88;;
13584;SDS011;6863;48.402;9.994;2024-01-11T01:35:10;53.07;;;36.77;;
13584;SDS011;6863;48.402;9.994;2024-01-11T01:37:35;53.88;;;37.20;;
13584;SDS011;6863;48.402;9.994;2024-01-11T01:40:01;55.38;;;36.53;;
13584;SDS011;6863;48.402;9.994;2024-01-11T01:42:27;58.47;;;38.80;;
13584;SDS011;6863;48.402;9.994;2024-01-11T01:44:52;61.63;;;39.53;;
13584;SDS011;6863;48.402;9.994;2024-01-11T01:47:18;59.77;;;39.73;;
13584;SDS011;6863;48.402;9.994;2024-01-11T01:49:44;58.37;;;38.47;;
13584;SDS011;6863;48.402;9.994;2024-01-11T01:52:13;56.50;;;37.72;;
13584;SDS011;6863;48.402;9.994;2024-01-11T01:54:40;57.78;;;38.30;;
13584;SDS011;6863;48.402;9.994;2024-01-11T01:57:05;57.30;;;39.50;;
13584;SDS011;6863;48.402;9.994;2024-01-11T01:59:37;55.85;;;37.72;;
13584;SDS011;6863;48.402;9.994;2024-01-11T02:02:04;56.77;;;37.77;;
13584;SDS011;6863;48.402;9.994;2024-01-11T02:04:31;56.88;;;36.97;;
13584;SDS011;6863;48.402;9.994;2024-01-11T02:06:56;56.53;;;36.57;;
13584;SDS011;6863;48.402;9.994;2024-01-11T02:09:23;54.00;;;37.00;;
13584;SDS011;6863;48.402;9.994;2024-01-11T02:11:50;56.45;;;37.17;;
13584;SDS011;6863;48.402;9.994;2024-01-11T02:14:18;55.90;;;37.33;;
13584;SDS011;6863;48.402;9.994;2024-01-11T02:16:44;56.15;;;36.63;;
13584;SDS011;6863;48.402;9.994;2024-01-11T02:19:12;57.58;;;38.17;;
13584;SDS011;6863;48.402;9.994;2024-01-11T02:21:38;55.28;;;36.92;;
13584;SDS011;6863;48.402;9.994;2024-01-11T02:24:08;52.05;;;36.75;;
13584;SDS011;6863;48.402;9.994;2024-01-11T02:26:34;53.13;;;34.38;;
13584;SDS011;6863;48.402;9.994;2024-01-11T02:29:00;55.65;;;36.40;;
13584;SDS011;6863;48.402;9.994;2024-01-11T02:31:26;54.07;;;35.20;;
13584;SDS011;6863;48.402;9.994;2024-01-11T02:33:52;52.33;;;33.30;;
13584;SDS011;6863;48.402;9.994;2024-01-11T02:36:23;48.97;;;32.92;;
13584;SDS011;6863;48.402;9.994;2024-01-11T02:38:50;51.33;;;34.63;;
13584;SDS011;6863;48.402;9.994;2024-01-11T02:41:16;54.58;;;35.05;;
13584;SDS011;6863;48.402;9.994;2024-01-11T02:43:49;52.20;;;32.80;;
13584;SDS011;6863;48.402;9.994;2024-01-11T02:46:15;49.88;;;33.88;;
13584;SDS011;6863;48.402;9.994;2024-01-11T02:48:40;53.85;;;34.70;;
13584;SDS011;6863;48.402;9.994;2024-01-11T02:51:06;52.67;;;33.42;;
13584;SDS011;6863;48.402;9.994;2024-01-11T02:53:32;51.87;;;33.37;;
13584;SDS011;6863;48.402;9.994;2024-01-11T02:55:59;51.95;;;33.85;;
13584;SDS011;6863;48.402;9.994;2024-01-11T03:00:57;50.28;;;33.15;;
13584;SDS011;6863;48.402;9.994;2024-01-11T03:03:22;49.55;;;33.10;;
13584;SDS011;6863;48.402;9.994;2024-01-11T03:05:48;52.75;;;35.65;;
13584;SDS011;6863;48.402;9.994;2024-01-11T03:08:13;52.90;;;34.87;;
13584;SDS011;6863;48.402;9.994;2024-01-11T03:10:39;52.33;;;33.30;;
13584;SDS011;6863;48.402;9.994;2024-01-11T03:13:05;54.00;;;34.93;;
13584;SDS011;6863;48.402;9.994;2024-01-11T03:15:31;53.03;;;34.08;;
13584;SDS011;6863;48.402;9.994;2024-01-11T03:17:57;53.27;;;34.20;;
13584;SDS011;6863;48.402;9.994;2024-01-11T03:20:23;52.80;;;35.50;;
13584;SDS011;6863;48.402;9.994;2024-01-11T03:22:50;56.08;;;36.35;;
13584;SDS011;6863;48.402;9.994;2024-01-11T03:25:17;56.28;;;36.10;;
13584;SDS011;6863;48.402;9.994;2024-01-11T03:27:43;57.53;;;37.30;;
13584;SDS011;6863;48.402;9.994;2024-01-11T03:30:08;57.80;;;36.57;;
13584;SDS011;6863;48.402;9.994;2024-01-11T03:32:34;55.47;;;36.40;;
13584;SDS011;6863;48.402;9.994;2024-01-11T03:35:00;52.87;;;35.13;;
13584;SDS011;6863;48.402;9.994;2024-01-11T03:37:25;52.70;;;35.50;;
13584;SDS011;6863;48.402;9.994;2024-01-11T03:39:51;50.97;;;34.72;;
13584;SDS011;6863;48.402;9.994;2024-01-11T03:42:16;53.92;;;35.97;;
13584;SDS011;6863;48.402;9.994;2024-01-11T03:44:42;54.80;;;35.55;;
13584;SDS011;6863;48.402;9.994;2024-01-11T03:47:07;56.22;;;36.00;;
13584;SDS011;6863;48.402;9.994;2024-01-11T03:49:33;50.70;;;34.10;;
13584;SDS011;6863;48.402;9.994;2024-01-11T03:51:58;53.13;;;33.80;;
13584;SDS011;6863;48.402;9.994;2024-01-11T03:54:24;50.97;;;33.30;;
13584;SDS011;6863;48.402;9.994;2024-01-11T03:56:50;53.53;;;35.97;;
13584;SDS011;6863;48.402;9.994;2024-01-11T03:59:15;54.77;;;35.50;;
13584;SDS011;6863;48.402;9.994;2024-01-11T04:01:41;58.78;;;36.42;;
13584;SDS011;6863;48.402;9.994;2024-01-11T04:04:07;52.53;;;35.50;;
13584;SDS011;6863;48.402;9.994;2024-01-11T04:06:33;56.97;;;35.63;;
13584;SDS011;6863;48.402;9.994;2024-01-11T04:08:58;55.25;;;35.67;;
13584;SDS011;6863;48.402;9.994;2024-01-11T04:11:27;55.80;;;36.95;;
13584;SDS011;6863;48.402;9.994;2024-01-11T04:13:53;54.35;;;34.65;;
13584;SDS011;6863;48.402;9.994;2024-01-11T04:16:19;54.67;;;36.83;;
13584;SDS011;6863;48.402;9.994;2024-01-11T04:18:45;59.33;;;37.20;;
13584;SDS011;6863;48.402;9.994;2024-01-11T04:21:21;54.28;;;35.30;;
13584;SDS011;6863;48.402;9.994;2024-01-11T04:23:47;57.92;;;38.58;;
13584;SDS011;6863;48.402;9.994;2024-01-11T04:26:12;58.78;;;36.90;;
13584;SDS011;6863;48.402;9.994;2024-01-11T04:28:38;56.22;;;37.22;;
13584;SDS011;6863;48.402;9.994;2024-01-11T04:31:04;58.63;;;37.72;;
13584;SDS011;6863;48.402;9.994;2024-01-11T04:33:29;61.28;;;38.38;;
13584;SDS011;6863;48.402;9.994;2024-01-11T04:35:55;55.17;;;35.25;;
13584;SDS011;6863;48.402;9.994;2024-01-11T04:38:20;59.87;;;38.57;;
13584;SDS011;6863;48.402;9.994;2024-01-11T04:40:46;58.17;;;38.93;;
13584;SDS011;6863;48.402;9.994;2024-01-11T04:43:11;63.00;;;39.70;;
13584;SDS011;6863;48.402;9.994;2024-01-11T04:45:37;57.97;;;38.47;;
13584;SDS011;6863;48.402;9.994;2024-01-11T04:48:02;58.40;;;38.53;;
13584;SDS011;6863;48.402;9.994;2024-01-11T04:50:28;60.13;;;39.35;;
13584;SDS011;6863;48.402;9.994;2024-01-11T04:52:54;60.05;;;39.17;;
13584;SDS011;6863;48.402;9.994;2024-01-11T04:55:19;61.03;;;38.88;;
13584;SDS011;6863;48.402;9.994;2024-01-11T04:57:45;63.37;;;39.27;;
13584;SDS011;6863;48.402;9.994;2024-01-11T05:00:10;60.43;;;39.77;;
13584;SDS011;6863;48.402;9.994;2024-01-11T05:02:36;58.72;;;38.88;;
13584;SDS011;6863;48.402;9.994;2024-01-11T05:05:02;58.33;;;38.97;;
13584;SDS011;6863;48.402;9.994;2024-01-11T05:07:28;59.77;;;39.07;;
13584;SDS011;6863;48.402;9.994;2024-01-11T05:09:54;60.92;;;40.47;;
13584;SDS011;6863;48.402;9.994;2024-01-11T05:12:19;61.10;;;39.10;;
13584;SDS011;6863;48.402;9.994;2024-01-11T05:14:45;59.85;;;39.08;;
13584;SDS011;6863;48.402;9.994;2024-01-11T05:17:10;59.80;;;39.72;;
13584;SDS011;6863;48.402;9.994;2024-01-11T05:19:36;59.65;;;39.30;;
13584;SDS011;6863;48.402;9.994;2024-01-11T05:22:01;53.38;;;37.50;;
13584;SDS011;6863;48.402;9.994;2024-01-11T05:24:28;59.50;;;41.13;;
13584;SDS011;6863;48.402;9.994;2024-01-11T05:26:53;61.15;;;40.28;;
13584;SDS011;6863;48.402;9.994;2024-01-11T05:29:19;61.80;;;39.45;;
13584;SDS011;6863;48.402;9.994;2024-01-11T05:31:44;60.97;;;39.03;;
13584;SDS011;6863;48.402;9.994;2024-01-11T05:34:10;61.53;;;39.13;;
13584;SDS011;6863;48.402;9.994;2024-01-11T05:36:37;61.47;;;39.53;;
13584;SDS011;6863;48.402;9.994;2024-01-11T05:39:03;62.27;;;40.17;;
13584;SDS011;6863;48.402;9.994;2024-01-11T05:41:29;58.00;;;39.47;;
13584;SDS011;6863;48.402;9.994;2024-01-11T05:43:54;62.80;;;40.38;;
13584;SDS011;6863;48.402;9.994;2024-01-11T05:46:20;62.40;;;40.10;;
13584;SDS011;6863;48.402;9.994;2024-01-11T05:48:45;60.63;;;40.67;;
13584;SDS011;6863;48.402;9.994;2024-01-11T05:51:11;61.80;;;41.27;;
13584;SDS011;6863;48.402;9.994;2024-01-11T05:53:37;60.70;;;39.70;;
13584;SDS011;6863;48.402;9.994;2024-01-11T05:56:11;59.30;;;41.22;;
13584;SDS011;6863;48.402;9.994;2024-01-11T05:58:37;63.30;;;40.20;;
13584;SDS011;6863;48.402;9.994;2024-01-11T06:01:04;61.83;;;40.78;;
13584;SDS011;6863;48.402;9.994;2024-01-11T06:03:30;62.93;;;41.27;;
13584;SDS011;6863;48.402;9.994;2024-01-11T06:05:58;63.75;;;41.13;;
13584;SDS011;6863;48.402;9.994;2024-01-11T06:08:25;63.17;;;40.00;;
13584;SDS011;6863;48.402;9.994;2024-01-11T06:10:50;64.05;;;41.65;;
13584;SDS011;6863;48.402;9.994;2024-01-11T06:13:16;61.40;;;40.77;;
13584;SDS011;6863;48.402;9.994;2024-01-11T06:15:43;65.03;;;41.33;;
13584;SDS011;6863;48.402;9.994;2024-01-11T06:18:09;65.82;;;41.90;;
13584;SDS011;6863;48.402;9.994;2024-01-11T06:20:34;61.10;;;40.65;;
13584;SDS011;6863;48.402;9.994;2024-01-11T06:23:00;68.22;;;41.60;;
13584;SDS011;6863;48.402;9.994;2024-01-11T06:25:25;60.80;;;39.93;;
13584;SDS011;6863;48.402;9.994;2024-01-11T06:27:51;62.37;;;41.27;;
13584;SDS011;6863;48.402;9.994;2024-01-11T06:30:17;63.33;;;40.93;;
13584;SDS011;6863;48.402;9.994;2024-01-11T06:32:42;64.50;;;42.57;;
13584;SDS011;6863;48.402;9.994;2024-01-11T06:35:08;59.60;;;41.17;;
13584;SDS011;6863;48.402;9.994;2024-01-11T06:37:34;64.90;;;43.03;;
13584;SDS011;6863;48.402;9.994;2024-01-11T06:40:00;67.47;;;43.33;;
13584;SDS011;6863;48.402;9.994;2024-01-11T06:42:25;68.80;;;44.53;;
13584;SDS011;6863;48.402;9.994;2024-01-11T06:44:51;64.17;;;43.67;;
13584;SDS011;6863;48.402;9.994;2024-01-11T06:47:17;68.87;;;42.80;;
13584;SDS011;6863;48.402;9.994;2024-01-11T06:49:42;65.93;;;42.57;;
13584;SDS011;6863;48.402;9.994;2024-01-11T06:52:09;65.68;;;42.80;;
13584;SDS011;6863;48.402;9.994;2024-01-11T06:54:34;62.75;;;43.03;;
13584;SDS011;6863;48.402;9.994;2024-01-11T06:57:03;69.15;;;45.38;;
13584;SDS011;6863;48.402;9.994;2024-01-11T06:59:29;70.03;;;43.17;;
13584;SDS011;6863;48.402;9.994;2024-01-11T07:01:54;69.73;;;45.03;;
13584;SDS011;6863;48.402;9.994;2024-01-11T07:04:20;66.67;;;44.57;;
13584;SDS011;6863;48.402;9.994;2024-01-11T07:06:45;67.83;;;43.50;;
13584;SDS011;6863;48.402;9.994;2024-01-11T07:09:11;69.57;;;45.80;;
13584;SDS011;6863;48.402;9.994;2024-01-11T07:11:37;63.63;;;43.80;;
13584;SDS011;6863;48.402;9.994;2024-01-11T07:14:02;66.75;;;44.10;;
13584;SDS011;6863;48.402;9.994;2024-01-11T07:16:29;71.35;;;44.33;;
13584;SDS011;6863;48.402;9.994;2024-01-11T07:18:55;64.87;;;44.50;;
13584;SDS011;6863;48.402;9.994;2024-01-11T07:21:24;67.90;;;44.33;;
13584;SDS011;6863;48.402;9.994;2024-01-11T07:23:57;67.85;;;45.20;;
13584;SDS011;6863;48.402;9.994;2024-01-11T07:26:25;68.55;;;44.78;;
13584;SDS011;6863;48.402;9.994;2024-01-11T07:28:51;71.43;;;46.20;;
13584;SDS011;6863;48.402;9.994;2024-01-11T07:31:19;71.00;;;46.10;;
13584;SDS011;6863;48.402;9.994;2024-01-11T07:33:45;69.28;;;46.05;;
13584;SDS011;6863;48.402;9.994;2024-01-11T07:36:11;74.55;;;46.30;;
13584;SDS011;6863;48.402;9.994;2024-01-11T07:38:36;70.73;;;45.87;;
13584;SDS011;6863;48.402;9.994;2024-01-11T07:41:02;74.38;;;46.50;;
13584;SDS011;6863;48.402;9.994;2024-01-11T07:43:28;69.05;;;46.42;;
13584;SDS011;6863;48.402;9.994;2024-01-11T07:45:56;70.07;;;46.33;;
13584;SDS011;6863;48.402;9.994;2024-01-11T07:48:22;72.45;;;46.22;;
13584;SDS011;6863;48.402;9.994;2024-01-11T07:50:48;70.57;;;46.57;;
13584;SDS011;6863;48.402;9.994;2024-01-11T07:53:14;72.65;;;46.65;;
13584;SDS011;6863;48.402;9.994;2024-01-11T07:55:40;74.13;;;47.60;;
13584;SDS011;6863;48.402;9.994;2024-01-11T07:58:06;69.38;;;46.30;;
13584;SDS011;6863;48.402;9.994;2024-01-11T08:00:32;72.80;;;46.67;;
13584;SDS011;6863;48.402;9.994;2024-01-11T08:02:57;70.60;;;46.15;;
13584;SDS011;6863;48.402;9.994;2024-01-11T08:05:23;69.80;;;45.08;;
13584;SDS011;6863;48.402;9.994;2024-01-11T08:07:48;70.50;;;44.40;;
13584;SDS011;6863;48.402;9.994;2024-01-11T08:10:14;66.15;;;43.13;;
13584;SDS011;6863;48.402;9.994;2024-01-11T08:12:40;69.07;;;45.77;;
13584;SDS011;6863;48.402;9.994;2024-01-11T08:15:05;65.97;;;43.97;;
13584;SDS011;6863;48.402;9.994;2024-01-11T08:17:31;64.63;;;43.90;;
13584;SDS011;6863;48.402;9.994;2024-01-11T08:19:57;60.63;;;41.67;;
13584;SDS011;6863;48.402;9.994;2024-01-11T08:22:22;63.28;;;44.80;;
13584;SDS011;6863;48.402;9.994;2024-01-11T08:24:48;66.27;;;45.60;;
13584;SDS011;6863;48.402;9.994;2024-01-11T08:27:15;63.08;;;44.13;;
13584;SDS011;6863;48.402;9.994;2024-01-11T08:29:42;62.20;;;42.72;;
13584;SDS011;6863;48.402;9.994;2024-01-11T08:32:08;65.85;;;43.50;;
13584;SDS011;6863;48.402;9.994;2024-01-11T08:34:34;65.43;;;45.47;;
13584;SDS011;6863;48.402;9.994;2024-01-11T08:36:59;65.18;;;42.50;;
13584;SDS011;6863;48.402;9.994;2024-01-11T08:39:25;68.67;;;44.13;;
13584;SDS011;6863;48.402;9.994;2024-01-11T08:41:50;66.07;;;42.63;;
13584;SDS011;6863;48.402;9.994;2024-01-11T08:44:17;59.72;;;40.92;;
13584;SDS011;6863;48.402;9.994;2024-01-11T08:46:43;60.67;;;41.28;;
13584;SDS011;6863;48.402;9.994;2024-01-11T08:49:09;59.15;;;42.42;;
13584;SDS011;6863;48.402;9.994;2024-01-11T08:51:35;59.87;;;41.57;;
13584;SDS011;6863;48.402;9.994;2024-01-11T08:54:00;59.67;;;42.03;;
13584;SDS011;6863;48.402;9.994;2024-01-11T08:56:26;60.72;;;42.28;;
13584;SDS011;6863;48.402;9.994;2024-01-11T08:58:53;59.05;;;42.22;;
13584;SDS011;6863;48.402;9.994;2024-01-11T09:01:18;59.13;;;41.90;;
13584;SDS011;6863;48.402;9.994;2024-01-11T09:03:44;56.83;;;41.43;;
13584;SDS011;6863;48.402;9.994;2024-01-11T09:06:10;58.20;;;41.03;;
13584;SDS011;6863;48.402;9.994;2024-01-11T09:08:36;58.75;;;41.30;;
13584;SDS011;6863;48.402;9.994;2024-01-11T09:11:02;57.53;;;42.73;;
13584;SDS011;6863;48.402;9.994;2024-01-11T09:13:28;64.55;;;44.92;;
13584;SDS011;6863;48.402;9.994;2024-01-11T09:15:54;59.67;;;42.38;;
13584;SDS011;6863;48.402;9.994;2024-01-11T09:18:20;72.72;;;47.35;;
13584;SDS011;6863;48.402;9.994;2024-01-11T09:20:45;63.30;;;43.60;;
13584;SDS011;6863;48.402;9.994;2024-01-11T09:23:12;63.75;;;43.80;;
13584;SDS011;6863;48.402;9.994;2024-01-11T09:25:37;63.15;;;43.55;;
13584;SDS011;6863;48.402;9.994;2024-01-11T09:28:03;60.17;;;42.88;;
13584;SDS011;6863;48.402;9.994;2024-01-11T09:30:29;62.30;;;42.38;;
13584;SDS011;6863;48.402;9.994;2024-01-11T09:32:55;57.70;;;41.70;;
13584;SDS011;6863;48.402;9.994;2024-01-11T09:35:21;60.47;;;42.60;;
13584;SDS011;6863;48.402;9.994;2024-01-11T09:37:48;61.20;;;42.72;;
13584;SDS011;6863;48.402;9.994;2024-01-11T09:40:14;63.73;;;43.53;;
13584;SDS011;6863;48.402;9.994;2024-01-11T09:42:39;60.13;;;41.13;;
13584;SDS011;6863;48.402;9.994;2024-01-11T09:45:15;65.83;;;48.37;;
13584;SDS011;6863;48.402;9.994;2024-01-11T09:47:42;59.63;;;43.13;;
13584;SDS011;6863;48.402;9.994;2024-01-11T09:50:10;59.20;;;42.93;;
13584;SDS011;6863;48.402;9.994;2024-01-11T09:52:40;62.22;;;43.95;;
13584;SDS011;6863;48.402;9.994;2024-01-11T09:55:08;60.63;;;42.22;;
13584;SDS011;6863;48.402;9.994;2024-01-11T09:57:33;62.10;;;43.55;;
13584;SDS011;6863;48.402;9.994;2024-01-11T10:00:04;58.30;;;42.43;;
13584;SDS011;6863;48.402;9.994;2024-01-11T10:02:34;62.83;;;44.45;;
13584;SDS011;6863;48.402;9.994;2024-01-11T10:04:59;67.90;;;46.90;;
13584;SDS011;6863;48.402;9.994;2024-01-11T10:07:25;61.70;;;43.10;;
13584;SDS011;6863;48.402;9.994;2024-01-11T10:09:51;58.92;;;41.85;;
13584;SDS011;6863;48.402;9.994;2024-01-11T10:12:18;56.97;;;41.88;;
13584;SDS011;6863;48.402;9.994;2024-01-11T10:14:45;63.00;;;43.80;;
13584;SDS011;6863;48.402;9.994;2024-01-11T10:17:11;58.70;;;42.97;;
13584;SDS011;6863;48.402;9.994;2024-01-11T10:19:37;64.90;;;46.40;;
13584;SDS011;6863;48.402;9.994;2024-01-11T10:22:02;57.65;;;42.58;;
13584;SDS011;6863;48.402;9.994;2024-01-11T10:24:29;63.25;;;42.47;;
13584;SDS011;6863;48.402;9.994;2024-01-11T10:26:55;53.53;;;40.50;;
13584;SDS011;6863;48.402;9.994;2024-01-11T10:29:22;56.00;;;41.20;;
13584;SDS011;6863;48.402;9.994;2024-01-11T10:31:48;59.80;;;41.88;;
13584;SDS011;6863;48.402;9.994;2024-01-11T10:34:15;53.63;;;39.83;;
13584;SDS011;6863;48.402;9.994;2024-01-11T10:36:41;60.83;;;41.93;;
13584;SDS011;6863;48.402;9.994;2024-01-11T10:39:07;62.90;;;43.72;;
13584;SDS011;6863;48.402;9.994;2024-01-11T10:41:38;57.50;;;42.00;;
13584;SDS011;6863;48.402;9.994;2024-01-11T10:44:14;57.42;;;42.88;;
13584;SDS011;6863;48.402;9.994;2024-01-11T10:46:47;54.78;;;40.25;;
13584;SDS011;6863;48.402;9.994;2024-01-11T10:49:18;57.70;;;41.90;;
13584;SDS011;6863;48.402;9.994;2024-01-11T10:51:45;55.03;;;40.92;;
13584;SDS011;6863;48.402;9.994;2024-01-11T10:54:19;55.30;;;40.97;;
13584;SDS011;6863;48.402;9.994;2024-01-11T10:56:46;54.40;;;38.78;;
13584;SDS011;6863;48.402;9.994;2024-01-11T10:59:13;54.17;;;40.85;;
13584;SDS011;6863;48.402;9.994;2024-01-11T11:01:40;56.05;;;42.67;;
13584;SDS011;6863;48.402;9.994;2024-01-11T11:04:06;55.65;;;41.30;;
13584;SDS011;6863;48.402;9.994;2024-01-11T11:06:34;51.92;;;39.95;;
13584;SDS011;6863;48.402;9.994;2024-01-11T11:09:01;54.20;;;41.08;;
13584;SDS011;6863;48.402;9.994;2024-01-11T11:11:30;53.83;;;40.83;;
13584;SDS011;6863;48.402;9.994;2024-01-11T11:13:57;56.33;;;41.47;;
13584;SDS011;6863;48.402;9.994;2024-01-11T11:16:25;55.10;;;41.63;;
13584;SDS011;6863;48.402;9.994;2024-01-11T11:18:52;54.07;;;42.37;;
13584;SDS011;6863;48.402;9.994;2024-01-11T11:21:19;50.70;;;39.70;;
13584;SDS011;6863;48.402;9.994;2024-01-11T11:23:46;52.83;;;39.75;;
13584;SDS011;6863;48.402;9.994;2024-01-11T11:26:14;54.60;;;40.78;;
13584;SDS011;6863;48.402;9.994;2024-01-11T11:28:41;55.60;;;40.40;;
13584;SDS011;6863;48.402;9.994;2024-01-11T11:31:07;54.03;;;41.30;;
13584;SDS011;6863;48.402;9.994;2024-01-11T11:33:35;54.83;;;41.90;;
13584;SDS011;6863;48.402;9.994;2024-01-11T11:36:01;56.00;;;42.42;;
13584;SDS011;6863;48.402;9.994;2024-01-11T11:38:29;52.58;;;41.20;;
13584;SDS011;6863;48.402;9.994;2024-01-11T11:40:59;49.53;;;40.20;;
13584;SDS011;6863;48.402;9.994;2024-01-11T11:43:26;53.50;;;42.10;;
13584;SDS011;6863;48.402;9.994;2024-01-11T11:45:53;52.45;;;41.65;;
13584;SDS011;6863;48.402;9.994;2024-01-11T11:51:09;55.00;;;43.05;;
13584;SDS011;6863;48.402;9.994;2024-01-11T11:53:43;53.20;;;41.78;;
13584;SDS011;6863;48.402;9.994;2024-01-11T11:56:10;55.10;;;42.58;;
13584;SDS011;6863;48.402;9.994;2024-01-11T11:58:37;54.28;;;42.38;;
13584;SDS011;6863;48.402;9.994;2024-01-11T12:01:04;49.83;;;41.20;;
13584;SDS011;6863;48.402;9.994;2024-01-11T12:03:37;52.57;;;41.17;;
13584;SDS011;6863;48.402;9.994;2024-01-11T12:06:09;49.07;;;40.30;;
13584;SDS011;6863;48.402;9.994;2024-01-11T12:08:36;47.30;;;38.78;;
13584;SDS011;6863;48.402;9.994;2024-01-11T12:11:03;66.30;;;49.72;;
13584;SDS011;6863;48.402;9.994;2024-01-11T12:13:29;50.10;;;40.10;;
13584;SDS011;6863;48.402;9.994;2024-01-11T12:15:57;46.47;;;40.47;;
13584;SDS011;6863;48.402;9.994;2024-01-11T12:18:23;47.28;;;40.78;;
13584;SDS011;6863;48.402;9.994;2024-01-11T12:20:49;43.17;;;38.30;;
13584;SDS011;6863;48.402;9.994;2024-01-11T12:23:18;46.73;;;41.27;;
13584;SDS011;6863;48.402;9.994;2024-01-11T12:25:43;45.60;;;40.67;;
13584;SDS011;6863;48.402;9.994;2024-01-11T12:28:09;45.78;;;40.75;;
13584;SDS011;6863;48.402;9.994;2024-01-11T12:30:35;46.05;;;41.05;;
13584;SDS011;6863;48.402;9.994;2024-01-11T12:33:00;45.50;;;40.77;;
13584;SDS011;6863;48.402;9.994;2024-01-11T12:35:27;45.10;;;40.40;;
13584;SDS011;6863;48.402;9.994;2024-01-11T12:38:00;47.03;;;42.20;;
13584;SDS011;6863;48.402;9.994;2024-01-11T12:40:31;47.00;;;42.05;;
13584;SDS011;6863;48.402;9.994;2024-01-11T12:42:57;44.58;;;39.95;;
13584;SDS011;6863;48.402;9.994;2024-01-11T12:45:24;45.40;;;40.63;;
13584;SDS011;6863;48.402;9.994;2024-01-11T12:47:51;46.30;;;41.50;;
13584;SDS011;6863;48.402;9.994;2024-01-11T12:50:17;45.72;;;40.72;;
13584;SDS011;6863;48.402;9.994;2024-01-11T12:52:43;46.20;;;41.47;;
13584;SDS011;6863;48.402;9.994;2024-01-11T12:55:17;48.15;;;43.15;;
13584;SDS011;6863;48.402;9.994;2024-01-11T12:57:44;46.37;;;41.67;;
13584;SDS011;6863;48.402;9.994;2024-01-11T13:00:11;46.30;;;41.50;;
13584;SDS011;6863;48.402;9.994;2024-01-11T13:02:38;45.72;;;41.13;;
13584;SDS011;6863;48.402;9.994;2024-01-11T13:05:09;46.00;;;41.25;;
13584;SDS011;6863;48.402;9.994;2024-01-11T13:07:36;46.57;;;41.67;;
13584;SDS011;6863;48.402;9.994;2024-01-11T13:10:02;46.70;;;41.97;;
13584;SDS011;6863;48.402;9.994;2024-01-11T13:12:29;46.97;;;42.17;;
13584;SDS011;6863;48.402;9.994;2024-01-11T13:14:55;46.67;;;41.95;;
13584;SDS011;6863;48.402;9.994;2024-01-11T13:17:21;48.35;;;43.58;;
13584;SDS011;6863;48.402;9.994;2024-01-11T13:19:46;46.33;;;41.50;;
13584;SDS011;6863;48.402;9.994;2024-01-11T13:22:12;46.77;;;42.07;;
13584;SDS011;6863;48.402;9.994;2024-01-11T13:24:38;47.20;;;42.20;;
13584;SDS011;6863;48.402;9.994;2024-01-11T13:27:03;47.50;;;42.53;;
13584;SDS011;6863;48.402;9.994;2024-01-11T13:29:29;47.45;;;42.40;;
13584;SDS011;6863;48.402;9.994;2024-01-11T13:31:55;47.30;;;42.30;;
13584;SDS011;6863;48.402;9.994;2024-01-11T13:34:20;48.87;;;43.57;;
13584;SDS011;6863;48.402;9.994;2024-01-11T13:36:46;48.20;;;43.33;;
13584;SDS011;6863;48.402;9.994;2024-01-11T13:39:11;47.77;;;42.93;;
13584;SDS011;6863;48.402;9.994;2024-01-11T13:41:37;47.50;;;42.50;;
13584;SDS011;6863;48.402;9.994;2024-01-11T13:44:02;49.00;;;43.83;;
13584;SDS011;6863;48.402;9.994;2024-01-11T13:46:30;48.47;;;43.17;;
13584;SDS011;6863;48.402;9.994;2024-01-11T13:48:57;47.40;;;42.50;;
13584;SDS011;6863;48.402;9.994;2024-01-11T13:51:23;48.20;;;42.07;;
13584;SDS011;6863;48.402;9.994;2024-01-11T13:53:48;47.95;;;42.75;;
13584;SDS011;6863;48.402;9.994;2024-01-11T13:56:14;49.27;;;43.27;;
13584;SDS011;6863;48.402;9.994;2024-01-11T13:58:40;47.10;;;42.03;;
13584;SDS011;6863;48.402;9.994;2024-01-11T14:01:05;49.53;;;42.38;;
13584;SDS011;6863;48.402;9.994;2024-01-11T14:03:32;47.53;;;42.40;;
13584;SDS011;6863;48.402;9.994;2024-01-11T14:05:58;47.17;;;41.60;;
13584;SDS011;6863;48.402;9.994;2024-01-11T14:08:25;46.28;;;40.85;;
13584;SDS011;6863;48.402;9.994;2024-01-11T14:10:50;46.97;;;41.88;;
13584;SDS011;6863;48.402;9.994;2024-01-11T14:13:16;48.22;;;42.40;;
13584;SDS011;6863;48.402;9.994;2024-01-11T14:15:45;48.83;;;43.30;;
13584;SDS011;6863;48.402;9.994;2024-01-11T14:18:13;47.30;;;41.90;;
13584;SDS011;6863;48.402;9.994;2024-01-11T14:20:38;47.20;;;42.08;;
13584;SDS011;6863;48.402;9.994;2024-01-11T14:23:04;47.00;;;41.90;;
13584;SDS011;6863;48.402;9.994;2024-01-11T14:25:29;48.07;;;42.87;;
13584;SDS011;6863;48.402;9.994;2024-01-11T14:27:55;50.83;;;43.72;;
13584;SDS011;6863;48.402;9.994;2024-01-11T14:30:21;54.95;;;43.90;;
13584;SDS011;6863;48.402;9.994;2024-01-11T14:32:47;48.70;;;43.10;;